Time;durP1;ratioP1;P1;durP2;ratioP2;P2;SDS_P1;SDS_P2;PMS_P1;PMS_P2;Temp;Humidity;BMP_temperature;BMP_pressure;BME280_temperature;BME280_humidity;BME280_pressure;Samples;Min_cycle;Max_cycle;Signal;HPM_P1;HPM_P2
2024/03/21 00:00:49;;;;;;;19.97;7.27;;;;;;;;;;4931442;28;20193;-87
2024/03/21 00:03:54;;;;;;;15.80;7.70;;;;;;;;;;4932073;29;20215;-89
2024/03/21 00:07:02;;;;;;;18.83;8.80;;;;;;;;;;4936390;28;20194;-89
2024/03/21 00:10:09;;;;;;;20.57;7.87;;;;;;;;;;4951031;28;20198;-91
2024/03/21 00:13:13;;;;;;;18.93;7.67;;;;;;;;;;4951713;28;20178;-90
2024/03/21 00:16:18;;;;;;;16.70;7.60;;;;;;;;;;4952281;29;20562;-89
2024/03/21 00:19:23;;;;;;;15.13;7.10;;;;;;;;;;4932295;28;20228;-89
2024/03/21 00:22:29;;;;;;;17.50;7.87;;;;;;;;;;4930767;28;20521;-90
2024/03/21 00:25:34;;;;;;;16.93;7.77;;;;;;;;;;4930180;28;20588;-89
2024/03/21 00:28:39;;;;;;;19.17;7.63;;;;;;;;;;4932266;28;20258;-87
2024/03/21 00:31:46;;;;;;;18.03;8.40;;;;;;;;;;4930772;29;20297;-89
2024/03/21 00:34:50;;;;;;;15.40;7.50;;;;;;;;;;4930474;28;20620;-90
2024/03/21 00:37:59;;;;;;;18.53;7.77;;;;;;;;;;4928788;28;20633;-89
2024/03/21 00:41:04;;;;;;;17.63;8.00;;;;;;;;;;4931815;28;20199;-88
2024/03/21 00:44:09;;;;;;;21.33;8.73;;;;;;;;;;4931282;28;20268;-87
2024/03/21 00:50:36;;;;;;;19.00;7.67;;;;;;;;;;4950475;28;20216;-90
2024/03/21 00:53:43;;;;;;;15.63;7.80;;;;;;;;;;4951574;28;20422;-89
2024/03/21 00:56:47;;;;;;;18.43;8.30;;;;;;;;;;4951592;28;20215;-88
2024/03/21 00:59:52;;;;;;;21.80;7.57;;;;;;;;;;4951245;28;20338;-88
2024/03/21 01:02:56;;;;;;;18.67;7.50;;;;;;;;;;4933113;28;20200;-90
2024/03/21 01:06:01;;;;;;;20.37;7.80;;;;;;;;;;4941404;28;20199;-90
2024/03/21 01:09:08;;;;;;;18.13;7.93;;;;;;;;;;4940239;28;20200;-90
2024/03/21 01:12:13;;;;;;;14.63;7.47;;;;;;;;;;4940515;28;20257;-89
2024/03/21 01:15:18;;;;;;;18.63;8.47;;;;;;;;;;4938834;28;20199;-92
2024/03/21 01:18:34;;;;;;;18.63;7.93;;;;;;;;;;4954191;28;20182;-90
2024/03/21 01:21:40;;;;;;;17.13;7.73;;;;;;;;;;4960234;28;20183;-90
2024/03/21 01:24:48;;;;;;;19.10;8.10;;;;;;;;;;4947803;28;20609;-90
2024/03/21 01:27:52;;;;;;;18.03;8.23;;;;;;;;;;4948037;28;20191;-89
2024/03/21 01:30:59;;;;;;;17.00;7.87;;;;;;;;;;4947130;28;20243;-88
2024/03/21 01:34:04;;;;;;;19.07;8.20;;;;;;;;;;4957998;28;20215;-89
2024/03/21 01:37:09;;;;;;;19.53;7.50;;;;;;;;;;4948714;28;20670;-91
2024/03/21 01:40:14;;;;;;;14.03;7.60;;;;;;;;;;4948340;28;20230;-88
2024/03/21 01:43:22;;;;;;;16.10;8.20;;;;;;;;;;4949079;28;20175;-90
2024/03/21 01:46:26;;;;;;;20.97;7.90;;;;;;;;;;4958486;28;20199;-88
2024/03/21 01:49:31;;;;;;;16.77;7.80;;;;;;;;;;4946764;28;20200;-89
2024/03/21 01:52:37;;;;;;;15.53;7.47;;;;;;;;;;4946108;28;20191;-89
2024/03/21 01:55:43;;;;;;;18.67;8.17;;;;;;;;;;4946521;28;20259;-88
2024/03/21 01:58:49;;;;;;;15.43;7.60;;;;;;;;;;4957704;28;20220;-90
2024/03/21 02:01:58;;;;;;;15.23;7.40;;;;;;;;;;4947352;28;20215;-89
2024/03/21 02:05:03;;;;;;;16.37;7.50;;;;;;;;;;4947385;28;20204;-89
2024/03/21 02:08:08;;;;;;;17.43;8.13;;;;;;;;;;4947179;28;20655;-90
2024/03/21 02:11:15;;;;;;;16.50;7.90;;;;;;;;;;4949061;28;20231;-91
2024/03/21 02:14:20;;;;;;;21.23;7.80;;;;;;;;;;4947823;28;20199;-88
2024/03/21 02:17:26;;;;;;;16.67;8.27;;;;;;;;;;4946949;28;20558;-90
2024/03/21 02:20:30;;;;;;;20.53;9.13;;;;;;;;;;4947528;28;20231;-87
2024/03/21 02:23:37;;;;;;;23.00;8.53;;;;;;;;;;4937241;28;20199;-89
2024/03/21 02:26:42;;;;;;;19.50;8.87;;;;;;;;;;4929647;28;20204;-89
2024/03/21 02:29:46;;;;;;;22.20;8.40;;;;;;;;;;4927929;28;20212;-89
2024/03/21 02:32:51;;;;;;;19.23;8.50;;;;;;;;;;4928687;28;20208;-87
2024/03/21 02:35:55;;;;;;;20.00;8.43;;;;;;;;;;4928598;28;20341;-88
2024/03/21 02:39:02;;;;;;;16.03;7.90;;;;;;;;;;4929478;28;20183;-87
2024/03/21 02:42:08;;;;;;;24.13;8.30;;;;;;;;;;4926652;29;20195;-89
2024/03/21 02:45:14;;;;;;;18.43;7.90;;;;;;;;;;4925368;28;20200;-91
2024/03/21 02:48:18;;;;;;;19.53;8.03;;;;;;;;;;4927675;28;20224;-89
2024/03/21 02:51:24;;;;;;;19.43;8.03;;;;;;;;;;4928578;28;20219;-88
2024/03/21 02:54:31;;;;;;;15.63;7.30;;;;;;;;;;4928939;28;20804;-89
2024/03/21 02:57:36;;;;;;;16.73;7.70;;;;;;;;;;4928818;28;20200;-91
2024/03/21 03:00:41;;;;;;;14.20;6.93;;;;;;;;;;4926864;28;20702;-90
2024/03/21 03:03:45;;;;;;;16.50;7.60;;;;;;;;;;4929002;28;20262;-87
2024/03/21 03:06:51;;;;;;;20.90;7.37;;;;;;;;;;4928569;28;20298;-88
2024/03/21 03:09:58;;;;;;;20.03;8.57;;;;;;;;;;4930124;28;20336;-89
2024/03/21 03:13:02;;;;;;;19.03;7.60;;;;;;;;;;4926599;28;20215;-87
2024/03/21 03:16:08;;;;;;;14.70;7.30;;;;;;;;;;4927350;28;20216;-90
2024/03/21 03:19:12;;;;;;;14.77;7.23;;;;;;;;;;4927145;28;20191;-89
2024/03/21 03:22:17;;;;;;;18.33;7.87;;;;;;;;;;4937440;28;20203;-88
2024/03/21 03:25:22;;;;;;;15.77;7.67;;;;;;;;;;4949138;28;20186;-88
2024/03/21 03:28:28;;;;;;;21.00;8.47;;;;;;;;;;4947664;28;20243;-90
2024/03/21 03:31:35;;;;;;;20.13;7.63;;;;;;;;;;4946723;28;20227;-89
2024/03/21 03:38:08;;;;;;;15.90;7.80;;;;;;;;;;4946159;28;20557;-91
2024/03/21 03:41:15;;;;;;;18.73;7.47;;;;;;;;;;4944744;28;20223;-91
2024/03/21 03:44:21;;;;;;;21.23;7.87;;;;;;;;;;4946898;28;20207;-88
2024/03/21 03:47:26;;;;;;;15.70;8.03;;;;;;;;;;4946611;28;20191;-89
2024/03/21 03:50:32;;;;;;;16.07;8.10;;;;;;;;;;4947503;28;20251;-88
2024/03/21 03:53:36;;;;;;;17.63;7.60;;;;;;;;;;4944209;28;20339;-90
2024/03/21 03:56:43;;;;;;;16.37;7.67;;;;;;;;;;4945957;29;20214;-90
2024/03/21 03:59:47;;;;;;;17.97;8.13;;;;;;;;;;4948698;29;20250;-89
2024/03/21 04:02:52;;;;;;;16.93;7.70;;;;;;;;;;4932147;29;20231;-91
2024/03/21 04:05:58;;;;;;;16.73;7.77;;;;;;;;;;4928488;29;20192;-91
2024/03/21 04:09:04;;;;;;;19.60;7.47;;;;;;;;;;4929199;29;20179;-90
2024/03/21 04:12:09;;;;;;;18.47;7.67;;;;;;;;;;4928613;29;20195;-90
2024/03/21 04:15:15;;;;;;;22.90;8.70;;;;;;;;;;4928830;29;20196;-89
2024/03/21 04:18:20;;;;;;;17.60;8.20;;;;;;;;;;4928300;29;20199;-91
2024/03/21 04:21:23;;;;;;;19.37;8.40;;;;;;;;;;4927755;29;20235;-90
2024/03/21 04:24:28;;;;;;;17.70;8.67;;;;;;;;;;4928597;28;20199;-89
2024/03/21 04:27:37;;;;;;;23.23;8.97;;;;;;;;;;4928900;29;20709;-90
2024/03/21 04:30:41;;;;;;;16.10;7.50;;;;;;;;;;4928069;29;20211;-90
2024/03/21 04:33:47;;;;;;;17.77;8.37;;;;;;;;;;4929885;29;20213;-89
2024/03/21 04:36:51;;;;;;;20.27;8.47;;;;;;;;;;4938923;28;20195;-90
2024/03/21 04:39:56;;;;;;;20.33;8.57;;;;;;;;;;4929500;28;20215;-90
2024/03/21 04:43:02;;;;;;;20.60;8.47;;;;;;;;;;4940733;28;20199;-90
2024/03/21 04:46:07;;;;;;;17.80;8.53;;;;;;;;;;4931377;28;20184;-91
2024/03/21 04:49:13;;;;;;;16.00;8.03;;;;;;;;;;4929869;29;20199;-90
2024/03/21 04:52:18;;;;;;;23.50;11.27;;;;;;;;;;4929198;29;20819;-91
2024/03/21 04:55:22;;;;;;;21.23;8.80;;;;;;;;;;4928800;29;20192;-90
2024/03/21 04:58:29;;;;;;;18.70;9.13;;;;;;;;;;4928747;29;20553;-91
2024/03/21 05:01:32;;;;;;;20.63;9.03;;;;;;;;;;4940412;29;20294;-90
2024/03/21 05:04:38;;;;;;;16.37;8.67;;;;;;;;;;4929022;29;20247;-90
2024/03/21 05:07:42;;;;;;;19.00;8.07;;;;;;;;;;4927537;29;20223;-90
2024/03/21 05:10:47;;;;;;;19.13;8.57;;;;;;;;;;4927800;29;20188;-90
2024/03/21 05:13:54;;;;;;;19.37;7.80;;;;;;;;;;4930967;29;20587;-89
2024/03/21 05:16:58;;;;;;;18.37;8.07;;;;;;;;;;4929314;28;20565;-91
2024/03/21 05:20:04;;;;;;;17.83;7.93;;;;;;;;;;4927170;29;20222;-92
2024/03/21 05:23:09;;;;;;;20.37;8.33;;;;;;;;;;4928688;29;20318;-92
2024/03/21 05:26:14;;;;;;;16.70;8.17;;;;;;;;;;4946408;29;20278;-89
2024/03/21 05:29:19;;;;;;;17.10;7.97;;;;;;;;;;4946835;28;20218;-89
2024/03/21 05:32:25;;;;;;;18.83;8.57;;;;;;;;;;4948249;29;20215;-90
2024/03/21 05:35:29;;;;;;;21.33;9.13;;;;;;;;;;4948753;29;20284;-91
2024/03/21 05:38:34;;;;;;;17.47;8.67;;;;;;;;;;4946515;29;20188;-90
2024/03/21 05:41:39;;;;;;;18.47;8.60;;;;;;;;;;4948196;29;20242;-89
2024/03/21 05:44:45;;;;;;;18.50;9.07;;;;;;;;;;4936433;29;20200;-89
2024/03/21 05:47:49;;;;;;;21.53;9.23;;;;;;;;;;4929227;28;20195;-88
2024/03/21 05:50:55;;;;;;;22.67;9.50;;;;;;;;;;4927606;28;20276;-91
2024/03/21 05:54:01;;;;;;;19.37;9.70;;;;;;;;;;4941709;28;20203;-90
2024/03/21 05:57:09;;;;;;;18.90;8.17;;;;;;;;;;4947373;28;20230;-89
2024/03/21 06:00:17;;;;;;;16.97;8.13;;;;;;;;;;4946650;29;20219;-89
2024/03/21 06:03:22;;;;;;;17.20;8.60;;;;;;;;;;4948125;28;20203;-89
2024/03/21 06:06:27;;;;;;;22.63;8.80;;;;;;;;;;4947736;28;20218;-91
2024/03/21 06:09:32;;;;;;;16.80;8.47;;;;;;;;;;4947844;28;20195;-88
2024/03/21 06:12:38;;;;;;;16.97;8.70;;;;;;;;;;4949478;28;20182;-89
2024/03/21 06:15:44;;;;;;;17.70;9.00;;;;;;;;;;4948781;29;20251;-90
2024/03/21 06:18:49;;;;;;;17.70;8.23;;;;;;;;;;4948047;29;20207;-88
2024/03/21 06:21:54;;;;;;;18.70;7.93;;;;;;;;;;4947915;28;20246;-89
2024/03/21 06:25:01;;;;;;;15.70;7.87;;;;;;;;;;4930256;29;20192;-89
2024/03/21 06:28:07;;;;;;;21.53;8.63;;;;;;;;;;4940782;28;20659;-90
2024/03/21 06:31:13;;;;;;;25.33;8.03;;;;;;;;;;4941923;28;20330;-92
2024/03/21 06:34:18;;;;;;;18.07;7.97;;;;;;;;;;4953930;28;20226;-89
2024/03/21 06:37:22;;;;;;;17.20;7.77;;;;;;;;;;4950788;28;20255;-90
2024/03/21 06:40:27;;;;;;;17.37;7.77;;;;;;;;;;4948933;28;20674;-90
2024/03/21 06:43:33;;;;;;;20.67;8.80;;;;;;;;;;4946083;28;20290;-88
2024/03/21 06:46:40;;;;;;;15.47;7.40;;;;;;;;;;4948022;29;20272;-87
2024/03/21 06:49:45;;;;;;;16.23;7.57;;;;;;;;;;4947919;29;20211;-91
2024/03/21 06:52:51;;;;;;;17.60;7.77;;;;;;;;;;4946649;28;20246;-90
2024/03/21 06:55:56;;;;;;;13.80;6.87;;;;;;;;;;4945676;29;20195;-91
2024/03/21 06:59:00;;;;;;;19.00;7.70;;;;;;;;;;4947353;29;20186;-91
2024/03/21 07:02:11;;;;;;;16.17;7.73;;;;;;;;;;4953270;29;20247;-91
2024/03/21 07:05:16;;;;;;;14.23;7.30;;;;;;;;;;4951805;29;20682;-90
2024/03/21 07:08:21;;;;;;;16.03;7.60;;;;;;;;;;4952182;28;20228;-88
2024/03/21 07:11:25;;;;;;;14.93;7.07;;;;;;;;;;4934396;28;20215;-90
2024/03/21 07:14:32;;;;;;;14.83;7.50;;;;;;;;;;4941378;28;20224;-88
2024/03/21 07:17:56;;;;;;;14.43;6.77;;;;;;;;;;4952614;28;20203;-88
2024/03/21 07:21:00;;;;;;;14.90;7.07;;;;;;;;;;4953044;28;20275;-91
2024/03/21 07:24:08;;;;;;;15.07;7.28;;;;;;;;;;4957211;28;20206;-90
2024/03/21 07:27:12;;;;;;;16.97;7.27;;;;;;;;;;4945896;29;20401;-90
2024/03/21 07:30:19;;;;;;;16.97;6.87;;;;;;;;;;4949187;28;20291;-88
2024/03/21 07:33:25;;;;;;;15.97;7.40;;;;;;;;;;4953014;28;20207;-88
2024/03/21 07:36:30;;;;;;;16.87;7.03;;;;;;;;;;4949521;29;20202;-89
2024/03/21 07:39:35;;;;;;;15.98;7.20;;;;;;;;;;4952680;28;20199;-89
2024/03/21 07:42:41;;;;;;;16.50;7.03;;;;;;;;;;4952174;28;20675;-88
2024/03/21 07:45:45;;;;;;;14.43;7.25;;;;;;;;;;4938265;28;20198;-90
2024/03/21 07:48:55;;;;;;;16.50;7.50;;;;;;;;;;4943649;29;20262;-89
2024/03/21 07:52:01;;;;;;;15.20;7.32;;;;;;;;;;4944057;29;20218;-90
2024/03/21 07:55:08;;;;;;;37.88;14.13;;;;;;;;;;4945506;28;20211;-89
2024/03/21 07:58:12;;;;;;;17.52;8.73;;;;;;;;;;4940975;29;20274;-91
2024/03/21 08:01:18;;;;;;;16.60;8.38;;;;;;;;;;4952874;28;20271;-90
2024/03/21 08:04:28;;;;;;;21.70;8.10;;;;;;;;;;4954064;29;20243;-90
2024/03/21 08:07:33;;;;;;;16.67;8.18;;;;;;;;;;4952127;28;20203;-90
2024/03/21 08:10:38;;;;;;;20.27;9.95;;;;;;;;;;4952039;28;20251;-89
2024/03/21 08:13:42;;;;;;;18.23;8.60;;;;;;;;;;4953587;28;20335;-90
2024/03/21 08:16:48;;;;;;;22.58;8.55;;;;;;;;;;4952831;28;20219;-88
2024/03/21 08:20:12;;;;;;;18.58;8.80;;;;;;;;;;4953395;28;20215;-90
2024/03/21 08:23:22;;;;;;;19.95;8.88;;;;;;;;;;4964698;28;20265;-91
2024/03/21 08:26:26;;;;;;;18.55;10.00;;;;;;;;;;4953961;28;20263;-90
2024/03/21 08:29:32;;;;;;;19.05;8.13;;;;;;;;;;4953571;29;20218;-91
2024/03/21 08:32:37;;;;;;;18.52;8.23;;;;;;;;;;4959355;29;20231;-89
2024/03/21 08:39:05;;;;;;;20.05;8.73;;;;;;;;;;4955889;28;20190;-89
2024/03/21 08:42:09;;;;;;;20.35;8.43;;;;;;;;;;4954115;28;20231;-90
2024/03/21 08:45:14;;;;;;;17.63;8.32;;;;;;;;;;4954509;28;20195;-92
2024/03/21 08:48:21;;;;;;;21.10;9.07;;;;;;;;;;4955832;28;20208;-92
2024/03/21 08:51:25;;;;;;;18.75;9.13;;;;;;;;;;4965396;28;20219;-90
2024/03/21 08:54:34;;;;;;;19.10;9.43;;;;;;;;;;4952862;29;20225;-92
2024/03/21 08:57:39;;;;;;;21.27;9.93;;;;;;;;;;4953541;28;20199;-92
2024/03/21 09:00:46;;;;;;;27.02;9.18;;;;;;;;;;4935534;28;20228;-90
2024/03/21 09:03:51;;;;;;;22.02;10.02;;;;;;;;;;4954419;28;20214;-89
2024/03/21 09:06:56;;;;;;;20.92;9.55;;;;;;;;;;4934377;28;20235;-93
2024/03/21 09:10:16;;;;;;;18.23;9.13;;;;;;;;;;4948775;29;20255;-90
2024/03/21 09:13:27;;;;;;;18.05;9.55;;;;;;;;;;4953304;28;20219;-90
2024/03/21 09:16:32;;;;;;;19.23;9.43;;;;;;;;;;4933740;28;20216;-88
2024/03/21 09:19:36;;;;;;;19.52;9.52;;;;;;;;;;4940009;29;20211;-91
2024/03/21 09:22:41;;;;;;;24.45;9.13;;;;;;;;;;4940724;28;20202;-91
2024/03/21 09:25:46;;;;;;;17.15;8.52;;;;;;;;;;4946352;28;20701;-90
2024/03/21 09:32:17;;;;;;;19.02;8.35;;;;;;;;;;4945020;28;20231;-89
2024/03/21 09:35:21;;;;;;;21.65;8.43;;;;;;;;;;4951018;28;20211;-91
2024/03/21 09:38:28;;;;;;;17.42;9.07;;;;;;;;;;4951052;29;20191;-88
2024/03/21 09:41:34;;;;;;;16.70;8.02;;;;;;;;;;4962394;29;20227;-91
2024/03/21 09:44:39;;;;;;;15.40;7.88;;;;;;;;;;4952571;28;20281;-89
2024/03/21 09:47:46;;;;;;;16.55;8.02;;;;;;;;;;4950786;28;20335;-90
2024/03/21 09:50:50;;;;;;;18.25;7.90;;;;;;;;;;4950135;29;20218;-90
2024/03/21 09:54:06;;;;;;;15.32;8.43;;;;;;;;;;4948875;29;20262;-91
2024/03/21 09:57:12;;;;;;;18.63;7.82;;;;;;;;;;4950981;28;20184;-88
2024/03/21 10:00:20;;;;;;;15.18;7.03;;;;;;;;;;4954190;28;20261;-91
2024/03/21 10:03:25;;;;;;;20.25;8.20;;;;;;;;;;4954023;28;20199;-91
2024/03/21 10:09:57;;;;;;;17.65;7.35;;;;;;;;;;4952261;29;20212;-91
2024/03/21 10:13:04;;;;;;;18.27;7.95;;;;;;;;;;4950847;28;20362;-91
2024/03/21 10:16:11;;;;;;;29.30;8.75;;;;;;;;;;4950330;28;20228;-93
2024/03/21 10:19:18;;;;;;;13.27;7.20;;;;;;;;;;4946023;29;20275;-90
2024/03/21 10:22:24;;;;;;;16.15;7.10;;;;;;;;;;4971935;28;20214;-91
2024/03/21 10:25:32;;;;;;;13.32;6.85;;;;;;;;;;4964896;28;20242;-90
2024/03/21 10:28:37;;;;;;;14.57;6.63;;;;;;;;;;4951393;28;20214;-91
2024/03/21 10:31:48;;;;;;;10.85;6.00;;;;;;;;;;4950903;28;20222;-90
2024/03/21 12:38:20;;;;;;;18.73;7.93;;;;;;;;;;5607162;23;20302;-90
2024/03/21 12:41:25;;;;;;;12.38;6.97;;;;;;;;;;4953373;28;20227;-89
2024/03/21 12:44:31;;;;;;;10.93;6.68;;;;;;;;;;4953789;28;20202;-90
2024/03/21 12:47:35;;;;;;;10.60;6.47;;;;;;;;;;4935304;29;20216;-88
2024/03/21 12:50:42;;;;;;;15.45;6.70;;;;;;;;;;4944797;29;20207;-92
2024/03/21 12:54:01;;;;;;;12.38;6.68;;;;;;;;;;4944798;28;20179;-92
2024/03/21 12:57:08;;;;;;;11.25;7.00;;;;;;;;;;4948860;29;20287;-90
2024/03/21 13:00:13;;;;;;;18.75;8.25;;;;;;;;;;4951258;29;20214;-90
2024/03/21 13:03:19;;;;;;;14.90;7.53;;;;;;;;;;4952791;29;20191;-90
2024/03/21 13:06:24;;;;;;;19.65;7.93;;;;;;;;;;4950046;28;20243;-91
2024/03/21 13:09:29;;;;;;;13.02;7.25;;;;;;;;;;4950356;28;20183;-90
2024/03/21 13:12:36;;;;;;;17.13;8.07;;;;;;;;;;4949450;29;20679;-92
2024/03/21 13:15:41;;;;;;;16.33;7.97;;;;;;;;;;4950764;29;20194;-90
2024/03/21 13:18:48;;;;;;;15.55;7.85;;;;;;;;;;4938527;29;20317;-90
2024/03/21 13:21:56;;;;;;;13.60;7.53;;;;;;;;;;4951967;28;20230;-89
2024/03/21 13:25:06;;;;;;;15.88;8.18;;;;;;;;;;4950998;29;20243;-89
2024/03/21 13:28:12;;;;;;;16.00;7.70;;;;;;;;;;4933879;29;20219;-91
2024/03/21 13:31:17;;;;;;;17.80;7.93;;;;;;;;;;4941860;29;20230;-90
2024/03/21 13:34:25;;;;;;;14.98;8.27;;;;;;;;;;4973160;28;20750;-90
2024/03/21 13:37:30;;;;;;;13.60;8.27;;;;;;;;;;4958567;28;20247;-89
2024/03/21 13:40:36;;;;;;;15.18;7.85;;;;;;;;;;4959650;28;20210;-90
2024/03/21 13:43:45;;;;;;;21.52;8.98;;;;;;;;;;4973433;28;20222;-91
2024/03/21 13:46:49;;;;;;;19.15;8.35;;;;;;;;;;4959554;28;20218;-90
2024/03/21 13:53:16;;;;;;;15.07;8.30;;;;;;;;;;4951315;28;20238;-89
2024/03/21 13:56:20;;;;;;;16.42;7.82;;;;;;;;;;4952100;28;20194;-91
2024/03/21 13:59:28;;;;;;;15.25;8.05;;;;;;;;;;4951563;28;20215;-88
2024/03/21 14:02:33;;;;;;;19.63;8.05;;;;;;;;;;4952052;28;20222;-90
2024/03/21 14:05:41;;;;;;;15.95;8.75;;;;;;;;;;4954175;28;20199;-89
2024/03/21 14:08:47;;;;;;;13.25;8.30;;;;;;;;;;4951689;28;20694;-88
2024/03/21 14:11:52;;;;;;;19.77;8.32;;;;;;;;;;4952422;28;20183;-88
2024/03/21 14:15:00;;;;;;;17.65;8.57;;;;;;;;;;4941673;28;20192;-89
2024/03/21 14:18:05;;;;;;;17.73;8.02;;;;;;;;;;4951609;28;20240;-90
2024/03/21 14:21:10;;;;;;;35.55;9.35;;;;;;;;;;4941630;29;20207;-88
2024/03/21 14:24:15;;;;;;;20.33;9.02;;;;;;;;;;4963489;29;20195;-90
2024/03/21 14:27:19;;;;;;;20.67;8.65;;;;;;;;;;4962660;28;20191;-91
2024/03/21 14:30:29;;;;;;;15.13;8.23;;;;;;;;;;4952842;28;20203;-91
2024/03/21 14:33:34;;;;;;;17.05;8.55;;;;;;;;;;4951549;28;20327;-90
2024/03/21 14:36:41;;;;;;;21.13;8.45;;;;;;;;;;4949261;28;20199;-89
2024/03/21 14:39:45;;;;;;;18.45;8.57;;;;;;;;;;4948755;28;20219;-91
2024/03/21 14:42:51;;;;;;;23.35;8.95;;;;;;;;;;4948703;28;20316;-89
2024/03/21 14:45:56;;;;;;;15.70;8.18;;;;;;;;;;4947559;28;20285;-89
2024/03/21 14:49:02;;;;;;;20.73;8.43;;;;;;;;;;4950152;28;20195;-90
2024/03/21 14:52:08;;;;;;;14.90;7.88;;;;;;;;;;4949166;28;20195;-92
2024/03/21 14:55:13;;;;;;;18.08;8.68;;;;;;;;;;4950447;28;20175;-90
2024/03/21 14:58:20;;;;;;;16.70;8.27;;;;;;;;;;4948675;29;20246;-92
2024/03/21 15:01:28;;;;;;;14.23;8.63;;;;;;;;;;4952081;28;20175;-92
2024/03/21 15:04:35;;;;;;;14.30;7.57;;;;;;;;;;4952461;28;20257;-91
2024/03/21 15:07:39;;;;;;;13.13;8.02;;;;;;;;;;4950070;28;20241;-91
2024/03/21 15:14:07;;;;;;;16.10;8.38;;;;;;;;;;4946873;28;20206;-91
2024/03/21 15:17:13;;;;;;;10.65;4.95;;;;;;;;;;4948704;28;20195;-90
2024/03/21 15:20:20;;;;;;;9.70;4.38;;;;;;;;;;4950513;28;20207;-88
2024/03/21 15:23:24;;;;;;;7.60;4.70;;;;;;;;;;4948047;28;20301;-90
2024/03/21 15:26:32;;;;;;;9.27;4.40;;;;;;;;;;4948358;28;20202;-90
2024/03/21 15:29:36;;;;;;;7.50;4.05;;;;;;;;;;4946248;29;20219;-89
2024/03/21 15:32:46;;;;;;;7.57;4.30;;;;;;;;;;4957367;28;20216;-91
2024/03/21 15:35:50;;;;;;;10.20;4.30;;;;;;;;;;4948223;28;20207;-89
2024/03/21 15:38:56;;;;;;;7.00;4.13;;;;;;;;;;4944953;29;20210;-91
2024/03/21 15:42:00;;;;;;;9.55;4.60;;;;;;;;;;4946520;29;20206;-89
2024/03/21 15:45:06;;;;;;;10.05;4.32;;;;;;;;;;4947069;29;20191;-91
2024/03/21 15:48:13;;;;;;;8.32;4.20;;;;;;;;;;4950593;28;20176;-89
2024/03/21 15:51:17;;;;;;;6.65;4.05;;;;;;;;;;4947932;28;20236;-89
2024/03/21 15:54:23;;;;;;;10.35;5.05;;;;;;;;;;4952242;28;20285;-90
2024/03/21 15:57:30;;;;;;;7.05;3.80;;;;;;;;;;4955623;29;20214;-91
2024/03/21 16:00:47;;;;;;;16.25;3.13;;;;;;;;;;4953868;29;20242;-90
2024/03/21 16:03:54;;;;;;;6.82;3.08;;;;;;;;;;4945667;28;20280;-90
2024/03/21 16:06:58;;;;;;;8.52;3.33;;;;;;;;;;4949741;28;20302;-90
2024/03/21 16:10:04;;;;;;;8.07;3.40;;;;;;;;;;4950971;29;20187;-90
2024/03/21 16:13:09;;;;;;;7.50;3.75;;;;;;;;;;4949789;28;20206;-88
2024/03/21 16:16:14;;;;;;;6.55;3.55;;;;;;;;;;4949434;29;20207;-89
2024/03/21 16:19:21;;;;;;;8.23;3.42;;;;;;;;;;4948711;28;20280;-90
2024/03/21 16:22:27;;;;;;;6.53;3.28;;;;;;;;;;4949766;28;20226;-90
2024/03/21 16:25:31;;;;;;;8.15;3.42;;;;;;;;;;4950597;29;20203;-90
2024/03/21 16:28:36;;;;;;;5.22;3.10;;;;;;;;;;4932076;29;20211;-91
2024/03/21 16:31:40;;;;;;;6.38;2.97;;;;;;;;;;4936091;29;20203;-90
2024/03/21 16:34:47;;;;;;;4.80;3.15;;;;;;;;;;4951381;28;20214;-89
2024/03/21 16:37:52;;;;;;;6.75;3.40;;;;;;;;;;4950175;29;20266;-91
2024/03/21 16:40:57;;;;;;;8.90;3.60;;;;;;;;;;4950422;28;20195;-88
2024/03/21 16:44:02;;;;;;;8.43;3.47;;;;;;;;;;4931421;29;20558;-91
2024/03/21 16:47:08;;;;;;;7.28;2.80;;;;;;;;;;4945358;28;20207;-91
2024/03/21 16:50:23;;;;;;;5.85;3.40;;;;;;;;;;4950466;28;20219;-88
2024/03/21 16:53:27;;;;;;;9.13;3.90;;;;;;;;;;4932093;29;20239;-92
2024/03/21 16:56:32;;;;;;;8.75;3.38;;;;;;;;;;4941350;28;20254;-89
2024/03/21 16:59:39;;;;;;;7.78;3.58;;;;;;;;;;4929385;29;20199;-90
2024/03/21 17:02:43;;;;;;;6.25;3.08;;;;;;;;;;4944730;28;20304;-92
2024/03/21 17:05:55;;;;;;;8.32;3.67;;;;;;;;;;4948127;28;20293;-90
2024/03/21 17:09:00;;;;;;;8.05;3.60;;;;;;;;;;4948113;29;20320;-90
2024/03/21 17:12:06;;;;;;;9.65;3.80;;;;;;;;;;4949518;29;20195;-92
2024/03/21 17:15:10;;;;;;;6.03;3.00;;;;;;;;;;4942223;29;20244;-91
2024/03/21 17:18:16;;;;;;;6.53;2.88;;;;;;;;;;4948536;28;20264;-90
2024/03/21 17:21:21;;;;;;;9.85;3.90;;;;;;;;;;4947533;29;20199;-88
2024/03/21 17:24:26;;;;;;;17.52;5.95;;;;;;;;;;4948727;28;20659;-90
2024/03/21 17:27:30;;;;;;;7.80;3.70;;;;;;;;;;4948426;29;20335;-89
2024/03/21 17:30:36;;;;;;;11.63;3.53;;;;;;;;;;4949075;28;20190;-92
2024/03/21 17:33:40;;;;;;;6.93;3.70;;;;;;;;;;4948366;29;20324;-89
2024/03/21 17:36:46;;;;;;;7.15;3.90;;;;;;;;;;4947406;29;20241;-90
2024/03/21 17:39:51;;;;;;;8.77;4.57;;;;;;;;;;4948247;28;20243;-91
2024/03/21 17:42:56;;;;;;;9.25;3.75;;;;;;;;;;4947903;28;20230;-92
2024/03/21 17:46:01;;;;;;;7.40;3.67;;;;;;;;;;4947679;28;20220;-89
2024/03/21 17:49:05;;;;;;;9.90;4.30;;;;;;;;;;4947640;29;20195;-88
2024/03/21 17:52:11;;;;;;;7.40;4.25;;;;;;;;;;4947732;28;20705;-91
2024/03/21 17:55:17;;;;;;;9.27;4.32;;;;;;;;;;4948213;28;20195;-88
2024/03/21 17:58:22;;;;;;;10.40;4.80;;;;;;;;;;4947887;28;20192;-90
2024/03/21 18:01:27;;;;;;;7.57;4.07;;;;;;;;;;4949504;28;20195;-89
2024/03/21 18:04:32;;;;;;;11.73;4.88;;;;;;;;;;4949246;28;20206;-87
2024/03/21 18:07:39;;;;;;;13.98;5.60;;;;;;;;;;4949881;28;20268;-90
2024/03/21 18:10:44;;;;;;;10.32;4.50;;;;;;;;;;4948568;29;20206;-89
2024/03/21 18:13:49;;;;;;;16.00;3.65;;;;;;;;;;4946067;29;20215;-89
2024/03/21 18:16:53;;;;;;;9.85;4.20;;;;;;;;;;4945757;28;20228;-90
2024/03/21 18:19:59;;;;;;;35.10;14.02;;;;;;;;;;4946122;29;20246;-91
2024/03/21 18:23:05;;;;;;;5.70;3.58;;;;;;;;;;4944110;29;20219;-90
2024/03/21 18:26:10;;;;;;;7.72;3.53;;;;;;;;;;4944952;29;20191;-92
2024/03/21 18:29:16;;;;;;;9.32;3.90;;;;;;;;;;4945123;29;20746;-90
2024/03/21 18:32:22;;;;;;;11.13;4.40;;;;;;;;;;4945617;28;20195;-89
2024/03/21 18:35:26;;;;;;;13.52;3.80;;;;;;;;;;4948898;29;20211;-89
2024/03/21 18:38:32;;;;;;;6.40;4.07;;;;;;;;;;4947700;29;20254;-90
2024/03/21 18:41:37;;;;;;;9.95;4.43;;;;;;;;;;4946791;29;20202;-91
2024/03/21 18:44:42;;;;;;;9.13;4.28;;;;;;;;;;4948044;29;20194;-89
2024/03/21 18:47:46;;;;;;;9.20;4.35;;;;;;;;;;4944858;29;20664;-88
2024/03/21 18:50:51;;;;;;;8.15;4.55;;;;;;;;;;4945639;29;20187;-88
2024/03/21 18:53:58;;;;;;;10.38;4.18;;;;;;;;;;4946721;29;20188;-88
2024/03/21 18:57:06;;;;;;;9.32;4.78;;;;;;;;;;4945269;29;20196;-88
2024/03/21 19:00:11;;;;;;;12.23;5.10;;;;;;;;;;4945056;29;20187;-90
2024/03/21 19:03:16;;;;;;;16.13;7.10;;;;;;;;;;4944657;29;20251;-91
2024/03/21 19:06:21;;;;;;;10.15;5.68;;;;;;;;;;4945376;29;20219;-91
2024/03/21 19:09:28;;;;;;;9.43;5.68;;;;;;;;;;4944675;28;20199;-88
2024/03/21 19:12:32;;;;;;;9.88;5.75;;;;;;;;;;4946417;29;20199;-91
2024/03/21 19:15:37;;;;;;;10.80;5.78;;;;;;;;;;4944469;29;20678;-88
2024/03/21 19:18:43;;;;;;;13.05;6.30;;;;;;;;;;4944485;29;20206;-91
2024/03/21 19:21:47;;;;;;;14.55;6.57;;;;;;;;;;4933054;29;20187;-88
2024/03/21 19:24:54;;;;;;;18.13;8.50;;;;;;;;;;4943904;29;20543;-90
2024/03/21 19:27:58;;;;;;;15.25;6.90;;;;;;;;;;4947941;29;20243;-89
2024/03/21 19:31:03;;;;;;;18.00;8.07;;;;;;;;;;4947815;28;20216;-89
2024/03/21 19:34:08;;;;;;;14.80;8.07;;;;;;;;;;4947140;29;20191;-89
2024/03/21 19:37:13;;;;;;;16.73;8.77;;;;;;;;;;4947389;29;20191;-92
2024/03/21 19:40:22;;;;;;;21.08;8.57;;;;;;;;;;4948232;28;20178;-90
2024/03/21 19:43:27;;;;;;;17.38;7.50;;;;;;;;;;4947884;29;20215;-90
2024/03/21 19:46:32;;;;;;;12.48;6.78;;;;;;;;;;4948387;29;20215;-91
2024/03/21 19:49:38;;;;;;;12.88;6.85;;;;;;;;;;4950367;29;20545;-89
2024/03/21 19:52:42;;;;;;;12.00;6.57;;;;;;;;;;4950058;29;20202;-91
2024/03/21 19:56:00;;;;;;;11.85;5.93;;;;;;;;;;4950236;29;20171;-90
2024/03/21 19:59:06;;;;;;;12.25;7.00;;;;;;;;;;4948308;29;20202;-89
2024/03/21 20:02:12;;;;;;;14.82;7.65;;;;;;;;;;4948716;28;20774;-89
2024/03/21 20:05:16;;;;;;;20.80;9.82;;;;;;;;;;4948917;29;20222;-91
2024/03/21 20:08:22;;;;;;;21.02;10.00;;;;;;;;;;4947237;29;20187;-92
2024/03/21 20:11:28;;;;;;;19.58;9.63;;;;;;;;;;4947530;29;20179;-91
2024/03/21 20:14:33;;;;;;;28.25;12.00;;;;;;;;;;4948409;29;20194;-92
2024/03/21 20:17:37;;;;;;;23.73;10.00;;;;;;;;;;4948259;29;20190;-92
2024/03/21 20:20:42;;;;;;;21.85;10.77;;;;;;;;;;4946976;29;20677;-89
2024/03/21 20:23:48;;;;;;;25.90;10.70;;;;;;;;;;4948503;29;20210;-91
2024/03/21 20:26:54;;;;;;;27.08;12.20;;;;;;;;;;4949305;29;20242;-88
2024/03/21 20:29:59;;;;;;;29.05;13.30;;;;;;;;;;4948240;29;20183;-90
2024/03/21 20:33:03;;;;;;;25.92;11.23;;;;;;;;;;4947350;28;20183;-90
2024/03/21 20:36:08;;;;;;;22.33;10.80;;;;;;;;;;4948647;29;20191;-90
2024/03/21 20:39:13;;;;;;;25.70;11.70;;;;;;;;;;4945582;29;20222;-89
2024/03/21 20:42:20;;;;;;;20.95;10.48;;;;;;;;;;4945552;29;20272;-89
2024/03/21 20:45:24;;;;;;;22.25;9.25;;;;;;;;;;4947426;29;20277;-88